地図

経路データ

SID SEASON NUMBER BASIN SUBBASIN NAME ISO_TIME NATURE LAT LON WMO_WIND WMO_PRES WMO_AGENCY TRACK_TYPE DIST2LAND LANDFALL IFLAG USA_AGENCY USA_ATCF_ID USA_LAT USA_LON USA_RECORD USA_STATUS USA_WIND USA_PRES USA_SSHS USA_R34_NE USA_R34_SE USA_R34_SW USA_R34_NW USA_R50_NE USA_R50_SE USA_R50_SW USA_R50_NW USA_R64_NE USA_R64_SE USA_R64_SW USA_R64_NW USA_POCI USA_ROCI USA_RMW USA_EYE TOKYO_LAT TOKYO_LON TOKYO_GRADE TOKYO_WIND TOKYO_PRES TOKYO_R50_DIR TOKYO_R50_LONG TOKYO_R50_SHORT TOKYO_R30_DIR TOKYO_R30_LONG TOKYO_R30_SHORT TOKYO_LAND CMA_LAT CMA_LON CMA_CAT CMA_WIND CMA_PRES HKO_LAT HKO_LON HKO_CAT HKO_WIND HKO_PRES NEWDELHI_LAT NEWDELHI_LON NEWDELHI_GRADE NEWDELHI_WIND NEWDELHI_PRES NEWDELHI_CI NEWDELHI_DP NEWDELHI_POCI REUNION_LAT REUNION_LON REUNION_TYPE REUNION_WIND REUNION_PRES REUNION_TNUM REUNION_CI REUNION_RMW REUNION_R34_NE REUNION_R34_SE REUNION_R34_SW REUNION_R34_NW REUNION_R50_NE REUNION_R50_SE REUNION_R50_SW REUNION_R50_NW REUNION_R64_NE REUNION_R64_SE REUNION_R64_SW REUNION_R64_NW BOM_LAT BOM_LON BOM_TYPE BOM_WIND BOM_PRES BOM_TNUM BOM_CI BOM_RMW BOM_R34_NE BOM_R34_SE BOM_R34_SW BOM_R34_NW BOM_R50_NE BOM_R50_SE BOM_R50_SW BOM_R50_NW BOM_R64_NE BOM_R64_SE BOM_R64_SW BOM_R64_NW BOM_ROCI BOM_POCI BOM_EYE BOM_POS_METHOD BOM_PRES_METHOD NADI_LAT NADI_LON NADI_CAT NADI_WIND NADI_PRES WELLINGTON_LAT WELLINGTON_LON WELLINGTON_WIND WELLINGTON_PRES DS824_LAT DS824_LON DS824_STAGE DS824_WIND DS824_PRES TD9636_LAT TD9636_LON TD9636_STAGE TD9636_WIND TD9636_PRES TD9635_LAT TD9635_LON TD9635_WIND TD9635_PRES TD9635_ROCI NEUMANN_LAT NEUMANN_LON NEUMANN_CLASS NEUMANN_WIND NEUMANN_PRES MLC_LAT MLC_LON MLC_CLASS MLC_WIND MLC_PRES USA_GUST BOM_GUST BOM_GUST_PER REUNION_GUST REUNION_GUST_PER USA_SEAHGT USA_SEARAD_NE USA_SEARAD_SE USA_SEARAD_SW USA_SEARAD_NW STORM_SPEED STORM_DIR
1961198N18134 1961 62 WP MM GRACE 1961-07-16 12:00:00 TS 17.5000 134.400 main 1125 1062 __O___________ -1 17.5000 134.400 0 1002 14 271
1961198N18134 1961 62 WP MM GRACE 1961-07-16 15:00:00 TS 17.5105 133.688 main 1062 1000 __P___________ -1 17.5105 133.688 0 1001 13 270
1961198N18134 1961 62 WP MM GRACE 1961-07-16 18:00:00 TS 17.5000 133.000 main 1000 946 __O___________ -1 17.5000 133.000 0 1000 13 269
1961198N18134 1961 62 WP MM GRACE 1961-07-16 21:00:00 TS 17.4824 132.362 main 946 893 __P___________ -1 17.4824 132.362 0 1000 11 275
1961198N18134 1961 62 WP MM GRACE 1961-07-17 00:00:00 TS 17.6000 131.800 main 893 863 __O___________ -1 17.6000 131.800 0 1000 11 294
1961198N18134 1961 62 WP MM GRACE 1961-07-17 03:00:00 TS 17.9449 131.298 main 863 856 __P___________ -1 17.9449 131.298 0 999 12 316
1961198N18134 1961 62 WP MM GRACE 1961-07-17 06:00:00 TS 18.5000 130.900 main 864 862 __O___________ -1 18.5000 130.900 0 19 999 15 330
1961198N18134 1961 62 WP MM GRACE 1961-07-17 09:00:00 TS 19.2049 130.538 main 867 860 __P___________ -1 19.2049 130.538 0 19 999 16 343
1961198N18134 1961 62 WP MM GRACE 1961-07-17 12:00:00 TS 20.0000 130.400 main 869 869 __O___________ -1 20.0000 130.400 0 19 999 15 4
1961198N18134 1961 62 WP MM GRACE 1961-07-17 15:00:00 TS 20.7353 130.654 main 916 916 __P___________ -1 20.7353 130.654 0 21 999 16 20
1961198N18134 1961 62 WP MM GRACE 1961-07-17 18:00:00 TS 21.5000 131.000 main 972 969 __O___________ -1 21.5000 131.000 1 23 1000 17 15
1961198N18134 1961 62 WP MM GRACE 1961-07-17 21:00:00 TS 22.3648 131.132 main 961 871 __P___________ -1 22.3648 131.132 1 26 1000 17 3
1961198N18134 1961 62 WP MM GRACE 1961-07-18 00:00:00 TS 23.2000 131.100 main 871 793 __O___________ -1 23.2000 131.100 1 29 1000 16 352
1961198N18134 1961 62 WP MM GRACE 1961-07-18 03:00:00 TS 23.9025 130.903 main 793 725 __P___________ -1 23.9025 130.903 1 29 1000 14 341
1961198N18134 1961 62 WP MM GRACE 1961-07-18 06:00:00 TS 24.5000 130.600 main 725 670 __O___________ -1 24.5000 130.600 1 29 1000 13 335
1961198N18134 1961 62 WP MM GRACE 1961-07-18 09:00:00 TS 25.0675 130.293 main 659 617 __P___________ -1 25.0675 130.293 1 29 1000 11 331
1961198N18134 1961 62 WP MM GRACE 1961-07-18 12:00:00 TS 25.5000 130.000 main 617 596 __O___________ -1 25.5000 130.000 1 29 1000 8 326
1961198N18134 1961 62 WP MM GRACE 1961-07-18 15:00:00 TS 25.7599 129.770 main 587 577 __P___________ -1 25.7599 129.770 1 29 1000 5 318
1961198N18134 1961 62 WP MM GRACE 1961-07-18 18:00:00 TS 25.9000 129.600 main 579 570 __O___________ -1 25.9000 129.600 1 29 1000 4 314
1961198N18134 1961 62 WP MM GRACE 1961-07-18 21:00:00 TS 26.0150 129.477 main 570 561 __P___________ -1 26.0150 129.477 1 29 1000 3 318
1961198N18134 1961 62 WP MM GRACE 1961-07-19 00:00:00 TS 26.1000 129.400 main 561 550 __O___________ -1 26.1000 129.400 1 29 1000 2 329
1961198N18134 1961 62 WP MM GRACE 1961-07-19 03:00:00 TS 26.2000 129.350 main 552 542 __P___________ -1 26.2000 129.350 1 29 1000 2 335
1961198N18134 1961 62 WP MM GRACE 1961-07-19 06:00:00 TS 26.3000 129.300 main 542 531 __O___________ -1 26.3000 129.300 1 29 1000 2 327
1961198N18134 1961 62 WP MM GRACE 1961-07-19 09:00:00 TS 26.4000 129.208 main 533 523 __P___________ -1 26.4000 129.208 1 29 1000 3 318
1961198N18134 1961 62 WP MM GRACE 1961-07-19 12:00:00 TS 26.5000 129.100 main 525 518 __O___________ -1 26.5000 129.100 1 29 1000 3 316
1961198N18134 1961 62 WP MM GRACE 1961-07-19 15:00:00 TS 26.6000 128.993 main 518 510 __P___________ -1 26.6000 128.993 1 29 1000 3 318
1961198N18134 1961 62 WP MM GRACE 1961-07-19 18:00:00 TS 26.7000 128.900 main 510 500 __O___________ -1 26.7000 128.900 1 29 1000 2 327
1961198N18134 1961 62 WP MM GRACE 1961-07-19 21:00:00 TS 26.8000 128.850 main 503 493 __P___________ -1 26.8000 128.850 1 29 1000 2 335
1961198N18134 1961 62 WP MM GRACE 1961-07-20 00:00:00 TS 26.9000 128.800 main 493 483 __O___________ -1 26.9000 128.800 1 29 1000 2 328
1961198N18134 1961 62 WP MM GRACE 1961-07-20 03:00:00 TS 27.0075 128.708 main 486 476 __P___________ -1 27.0075 128.708 1 29 1000 3 318
1961198N18134 1961 62 WP MM GRACE 1961-07-20 06:00:00 TS 27.1000 128.600 main 480 474 __O___________ -1 27.1000 128.600 1 29 1000 2 309
1961198N18134 1961 62 WP MM GRACE 1961-07-20 09:00:00 TS 27.1575 128.500 main 474 474 __P___________ -1 27.1575 128.500 1 29 1000 2 300
1961198N18134 1961 62 WP MM GRACE 1961-07-20 12:00:00 TS 27.2000 128.400 main 479 472 __O___________ -1 27.2000 128.400 1 29 1000 2 300
1961198N18134 1961 62 WP MM GRACE 1961-07-20 15:00:00 TS 27.2575 128.308 main 472 472 __P___________ -1 27.2575 128.308 1 29 1000 2 300
1961198N18134 1961 62 WP MM GRACE 1961-07-20 18:00:00 TS 27.3000 128.200 main 476 476 __O___________ -1 27.3000 128.200 1 29 1000 2 283
1961198N18134 1961 62 WP MM GRACE 1961-07-20 21:00:00 TS 27.3075 128.057 main 480 480 __P___________ -1 27.3075 128.057 1 33 999 3 258
1961198N18134 1961 62 WP MM GRACE 1961-07-21 00:00:00 TS 27.2444 127.900 main 499 489 O_OO_____OOO__ jtwc_wp WP111961 27.3000 127.900 25 -1 27.3000 127.900 2 38 998 26.8000 127.900 TD 30 1000 27.3000 127.900 TC 25 27.3000 127.900 1 25 27.3000 127.900 25 1011 120 3 274
1961198N18134 1961 62 WP MM GRACE 1961-07-21 03:00:00 TS 27.3243 127.772 main 493 488 P_PP_____PPP__ WP111961 27.3325 127.757 30 -1 27.3000 127.750 2 38 998 27.2474 127.907 TD 30 1000 27.3325 127.757 TC 30 27.4252 127.726 1 27 27.3325 127.757 30 1009 120 3 308
1961198N18134 1961 62 WP MM GRACE 1961-07-21 06:00:00 TS 27.4311 127.624 main 493 483 O_OO_____OPO__ jtwc_wp WP111961 27.4000 127.600 35 0 27.3000 127.600 2 38 998 27.6000 127.800 TD 30 1000 27.4000 127.600 TC 35 27.5303 127.551 1 30 27.4000 127.600 35 1007 120 4 305
1961198N18134 1961 62 WP MM GRACE 1961-07-21 09:00:00 TS 27.5371 127.431 main 493 484 P_PP_____PPP__ WP111961 27.5150 127.415 35 0 27.3000 127.450 2 38 998 27.7827 127.515 TD 32 1000 27.5150 127.415 TC 35 27.5952 127.376 1 32 27.5150 127.415 35 1005 120 4 293
1961198N18134 1961 62 WP MM GRACE 1961-07-21 12:00:00 TS 27.5833 127.217 main 495 495 O_OO_____OOO__ jtwc_wp WP111961 27.6000 127.200 35 0 27.3000 127.300 2 38 998 27.8000 127.200 TS 35 1000 27.6000 127.200 TC 35 27.6000 127.200 2 35 27.6000 127.200 35 1004 120 4 272
1961198N18134 1961 62 WP MM GRACE 1961-07-21 15:00:00 TS 27.5499 126.982 main 516 506 P_PP_____PPP__ WP111961 27.5876 126.905 37 0 27.3150 127.150 2 38 998 27.6874 126.997 TS 37 1000 27.5876 126.905 TC 37 27.5338 127.031 2 36 27.5876 126.905 37 1003 120 4 250
1961198N18134 1961 62 WP MM GRACE 1961-07-21 18:00:00 TS 27.4537 126.817 main 506 506 O_OO_____OPO__ jtwc_wp WP111961 27.5000 126.700 40 0 27.3000 127.000 2 38 998 27.5000 126.900 TS 40 1000 27.5000 126.700 TC 40 27.4220 126.899 2 37 27.5000 126.700 40 1002 120 3 218
1961198N18134 1961 62 WP MM GRACE 1961-07-21 21:00:00 TS 27.3176 126.774 main 515 515 P_PP_____PPP__ WP111961 27.3498 126.710 40 0 27.2074 126.760 2 33 998 27.3500 126.913 TS 37 1000 27.3498 126.710 TC 40 27.2992 126.843 2 38 27.3498 126.710 40 1001 150 3 167
1961198N18134 1961 62 WP MM GRACE 1961-07-22 00:00:00 TS 27.1833 126.883 main 528 528 O_OO_____OOO__ jtwc_wp WP111961 27.2000 126.900 40 0 27.1000 126.700 1 29 998 27.2000 127.000 TS 35 1000 27.2000 126.900 TC 40 27.2000 126.900 2 40 27.2000 126.900 40 1001 180 4 125
1961198N18134 1961 62 WP MM GRACE 1961-07-22 03:00:00 TS 27.0856 127.155 main 542 527 P_PP_____PPP__ WP111961 27.1202 127.220 40 0 27.0129 127.075 1 29 997 27.0048 127.040 TS 35 1000 27.1202 127.220 TC 40 27.1356 127.151 2 40 27.1202 127.220 40 999 180 6 103
1961198N18134 1961 62 WP MM GRACE 1961-07-22 06:00:00 TS 27.0507 127.518 main 527 509 O_OO_____OPO__ jtwc_wp WP111961 27.1000 127.600 40 0 27.0000 127.600 1 29 997 26.9000 127.200 TS 35 1000 27.1000 127.600 TC 40 27.1039 127.506 2 40 27.1000 127.600 40 997 180 7 89
1961198N18134 1961 62 WP MM GRACE 1961-07-22 09:00:00 TS 27.0972 127.889 main 509 486 P_PP_____PPP__ WP111961 27.1125 127.930 40 0 27.1125 128.002 1 29 997 27.0131 127.657 TS 32 1000 27.1125 127.930 TC 40 27.1201 127.882 2 40 27.1125 127.930 40 996 180 6 75
1961198N18134 1961 62 WP MM GRACE 1961-07-22 12:00:00 TS 27.2167 128.200 main 486 458 O_OO_____OOO__ jtwc_wp WP111961 27.2000 128.200 40 0 27.3000 128.300 1 29 997 27.2000 128.100 TD 30 1000 27.2000 128.200 TC 40 27.2000 128.200 2 40 27.2000 128.200 40 996 180 5 57
1961198N18134 1961 62 WP MM GRACE 1961-07-22 15:00:00 TS 27.3782 128.370 main 458 437 P_PP_____PPP__ WP111961 27.3699 128.395 40 0 27.4999 128.453 1 29 997 27.2997 128.210 TD 30 999 27.3699 128.395 TC 40 27.3599 128.375 2 40 27.3699 128.395 40 996 150 4 31
1961198N18134 1961 62 WP MM GRACE 1961-07-22 18:00:00 TS 27.5803 128.446 main 437 413 O_OO_____OPO__ jtwc_wp WP111961 27.6000 128.500 40 0 27.7000 128.500 1 29 997 27.4000 128.200 TD 30 999 27.6000 128.500 TC 40 27.5820 128.477 2 40 27.6000 128.500 40 996 120 4 14
1961198N18134 1961 62 WP MM GRACE 1961-07-22 21:00:00 TS 27.7967 128.490 main 413 393 P_PP_____PPP__ WP111961 27.8425 128.538 40 0 27.8650 128.530 1 29 997 27.5500 128.280 TD 30 998 27.8425 128.538 TC 40 27.8381 128.516 2 40 27.8425 128.538 40 996 120 4 3
1961198N18134 1961 62 WP MM GRACE 1961-07-23 00:00:00 TS 28.0167 128.467 main 393 377 O_OO_____OOO__ jtwc_wp WP111961 28.1000 128.500 40 0 28.0000 128.500 1 29 997 27.7000 128.300 TD 30 998 28.1000 128.500 TC 40 28.1000 128.500 2 40 28.1000 128.500 40 996 120 4 347
1961198N18134 1961 62 WP MM GRACE 1961-07-23 03:00:00 TS 28.2155 128.380 main 377 362 P_PP_____PPP__ WP111961 28.3575 128.415 37 0 28.1075 128.408 1 29 997 27.8001 128.165 TD 30 998 28.3575 128.415 TC 37 28.3128 128.463 2 38 28.3575 128.415 37 996 120 4 335
1961198N18134 1961 62 WP MM GRACE 1961-07-23 06:00:00 TS 28.4046 128.262 main 362 348 O_OO_____OPO__ jtwc_wp WP111961 28.6000 128.300 35 0 28.2000 128.300 1 29 997 27.9000 128.000 TD 30 998 28.6000 128.300 TC 35 28.5274 128.375 2 37 28.6000 128.300 35 997 120 4 334
1961198N18134 1961 62 WP MM GRACE 1961-07-23 09:00:00 TS 28.5801 128.177 main 348 335 P_PP_____PPP__ WP111961 28.7925 128.207 35 0 28.3000 128.257 1 29 997 28.0500 127.935 TD 30 998 28.7925 128.207 TC 35 28.7534 128.250 2 36 28.7925 128.207 35 998 120 4 336
1961198N18134 1961 62 WP MM GRACE 1961-07-23 12:00:00 TS 28.7667 128.083 main 335 323 O_OO_____OOO__ jtwc_wp WP111961 29.0000 128.100 35 0 28.4000 128.200 1 29 997 28.2000 127.900 TD 30 998 29.0000 128.100 TC 35 29.0000 128.100 2 35 29.0000 128.100 35 999 120 4 335
1961198N18134 1961 62 WP MM GRACE 1961-07-23 15:00:00 TS 28.9824 127.962 main 323 313 P_PP_____PPP__ WP111961 29.2850 127.965 35 0 28.4850 128.072 1 29 997 28.2925 127.850 TD 30 998 29.2850 127.965 TC 35 29.2622 127.954 2 35 29.2850 127.965 35 999 120 5 333
1961198N18134 1961 62 WP MM GRACE 1961-07-23 18:00:00 TS 29.2246 127.814 main 320 305 O_OO_____OPO__ jtwc_wp WP111961 29.6000 127.800 35 0 28.6000 127.900 1 29 997 28.4000 127.800 TD 30 998 29.6000 127.800 TC 35 29.5475 127.787 2 35 29.6000 127.800 35 1000 120 6 331
1961198N18134 1961 62 WP MM GRACE 1961-07-23 21:00:00 TS 29.4807 127.650 main 305 301 P_PP_____PPP__ WP111961 29.9000 127.615 35 0 28.7400 127.707 1 29 997 28.5850 127.750 TD 30 998 29.9000 127.615 TC 35 29.8590 127.601 2 35 29.9000 127.615 35 1001 90 6 331
1961198N18134 1961 62 WP MM GRACE 1961-07-24 00:00:00 TS 29.7667 127.467 main 301 301 O_OO_____OOO__ jtwc_wp WP111961 30.2000 127.400 35 0 29.0000 127.500 1 29 997 28.8000 127.700 TD 30 998 30.2000 127.400 TC 35 30.2000 127.400 2 35 30.2000 127.400 35 1002 60 7 330
1961198N18134 1961 62 WP MM GRACE 1961-07-24 03:00:00 TS 30.0599 127.260 main 302 302 P_PP_____PPP__ WP111961 30.4700 127.150 35 0 29.4174 127.315 1 29 996 28.9925 127.657 TD 30 998 30.4700 127.150 TC 35 30.5392 127.138 2 35 30.4700 127.150 35 1002 60 7 331
1961198N18134 1961 62 WP MM GRACE 1961-07-24 06:00:00 TS 30.4184 127.045 main 314 268 O_OO_____OPO__ jtwc_wp WP111961 30.8000 126.900 35 0 30.0000 127.100 1 29 996 29.2000 127.600 TD 30 998 30.8000 126.900 TC 35 30.9106 126.870 2 35 30.8000 126.900 35 1002 60 9 335
1961198N18134 1961 62 WP MM GRACE 1961-07-24 09:00:00 TS 30.8682 126.827 main 257 200 P_PP_____PPP__ WP111961 31.2625 126.678 35 0 30.6752 126.786 1 29 996 29.4200 127.500 TD 30 998 31.2625 126.678 TC 35 31.3266 126.642 2 35 31.2625 126.678 35 1002 60 10 341
1961198N18134 1961 62 WP MM GRACE 1961-07-24 12:00:00 TS 31.4000 126.650 main 200 144 O_OO_____OOO__ jtwc_wp WP111961 31.8000 126.500 35 0 31.5000 126.500 1 29 996 29.7000 127.400 TD 30 998 31.8000 126.500 TC 35 31.8000 126.500 2 35 31.8000 126.500 35 1003 60 11 347
1961198N18134 1961 62 WP MM GRACE 1961-07-24 15:00:00 TS 31.9805 126.517 main 133 66 P_PP_____PPP__ WP111961 32.3274 126.326 32 -1 32.4998 126.304 1 29 996 30.0625 127.342 TD 30 998 32.3274 126.326 TC 32 32.3386 126.479 2 33 32.3274 126.326 32 1003 60 12 354
1961198N18134 1961 62 WP MM GRACE 1961-07-24 18:00:00 TS 32.5909 126.508 main 66 11 O_OO_____OPO__ jtwc_wp WP111961 32.9000 126.300 30 -1 33.5000 126.300 1 29 996 30.5000 127.300 TD 30 998 32.9000 126.300 TC 30 32.9300 126.560 2 32 32.9000 126.300 30 1004 60 12 5
1961198N18134 1961 62 WP MM GRACE 1961-07-24 21:00:00 TS 33.1688 126.635 main 0 0 P_PP_____PPP__ WP111961 33.5117 126.459 30 -1 34.3251 126.574 1 29 996 30.7901 127.185 TD 30 998 33.5117 126.459 TC 30 33.5564 126.712 2 31 33.5117 126.459 30 1005 60 14 17
1961198N18134 1961 62 WP MM GRACE 1961-07-25 00:00:00 TS 33.9118 126.976 main 45 0 O_OO_____OOO__ jtwc_wp WP111961 34.2000 126.900 30 -1 35.0000 127.000 1 29 997 31.5000 127.200 TD 30 998 34.2000 126.900 TC 30 34.2000 126.900 1 30 34.2000 126.900 30 1007 60 18 24
1961198N18134 1961 62 WP MM GRACE 1961-07-25 03:00:00 TS 34.8293 127.530 main 9 0 P_PP_____P_P__ WP111961 34.9771 127.655 27 -1 35.4995 127.357 1 997 33.0457 127.502 TD 30 999 34.9771 127.655 TC 27 1 34.9771 127.655 27 1008 60 21 28
1961198N18134 1961 62 WP MM GRACE 1961-07-25 06:00:00 TS 35.7857 128.171 main 0 0 O_OO_____O_O__ jtwc_wp WP111961 35.8000 128.600 25 -1 36.0000 127.800 0 997 35.1000 128.000 TD 30 1000 35.8000 128.600 TC 25 1 35.8000 128.600 25 1010 60 20 21
1961198N18134 1961 62 WP MM GRACE 1961-07-25 09:00:00 TS 36.6887 128.398 main 0 0 __P___________ WP111961 -1 36.6887 128.398 0 997 TD TC 1 19 23
1961198N18134 1961 62 WP MM GRACE 1961-07-25 12:00:00 TS 37.5000 129.100 main 0 __O___________ -1 37.5000 129.100 0 997 20 34

デジタル台風データ・検索

IBTrACS Databaseについて

本データベースは、米国NOAAが公開する1842年以降の世界の熱帯低気圧のベストトラックデータアーカイブInternational Best Track Archive for Climate Stewardship (IBTrACS)を、ウェブで閲覧しやすい形式に変換したものです。

最終更新日:2021-10-21